Etusivu
METAR-TAF:

METAR-TAF

Lentoasemat :

Jasper County Airport (Bell Field)

Jasper, Texas, Yhdysvallat

Leveyspiiri: 30-53-08N, Pituuspiiri: 094-02-05W, korkeus merenpinnasta: 65 m

Tämänhetkinen sää

Tämä raportti tehtiin 16 minuuttia sitten, kello 13.15 UTC
Tuuli 10 kn etelästä puuskistuen 15 kn:hen
Lämpötila 26°C
Kosteus 84%
Ilmanpaine 1008 hPa
Näkyvyys: 16.1 km
Pilvistä 2100 ft:n korkeudessa

METAR: KJAS 211315Z AUTO 18010G15KT 10SM OVC021 26/23 A2976 RMK AO2 T02610225

Aika: 08:31 (13:31 UTC)


TAF: puuttuu

Säähavainnot ja -ennusteet yli 4000 lentoasemalta (METAR- ja TAF-raportit).

Käytössä olevat sääasemat on merkitty karttaan keltaisilla ja punaisilla pisteillä.

Aseta hiiri pisteen päälle nähdäksesi sääaseman nimen.

Klikkaa sitten nähdäksesi säähavainnot ja -ennusteet.

Kartan vaihtaminen: klikkaa mustalla rastilla varustettuja vihreitä pisteitä, niin voit zoomata sisään; viivalla varustettua vihreää pistettä, niin voit zoomata ulos tai vihreitä nuolia, niin pääset viereisille kartoille.


METAR-TAF: